Impacts TAF Board INFO
FOR SITUATIONAL AWARENESS. NOT TO BE USED FOR FLIGHT PLANNING PURPOSES.
IDs:

KTPA - Tampa Intl Arpt, FL, US

Issued at 1731 UTC 28 Mar 2017
Updated at 1941 UTC 28 Mar 2017
Potential Impact None Slight Moderate High
Time1853Z 28/20Z 28/21Z 28/22Z 28/23Z 29/00Z 29/01Z 29/02Z 29/03Z 29/04Z 29/05Z 29/06Z 29/07Z 29/08Z
Type OBS PRVL PRVL PRVL PRVL PRVL PRVL PRVL PRVL PRVL PRVL PRVL PRVL PRVL
VIS 10 >6 >6 >6 >6 >6 >6 >6 >6 >6 >6 >6 >6 >6
CIG -- -- -- -- -- -- -- -- -- -- -- -- -- --
Cover FEW SCT FEW FEW FEW FEW FEW FEW SKC SKC SKC SKC SKC SKC
FltCat VFR VFR VFR VFR VFR VFR VFR VFR VFR VFR VFR VFR VFR VFR
WX -- -- -- -- -- -- -- -- -- -- -- -- -- --
WDir 250 240 270 270 270 270 310 310 VRB VRB VRB VRB VRB VRB
WSpd 7 8 8 8 8 8 4 4 3 3 3 3 3 3
WGst -- -- -- -- -- -- -- -- -- -- -- -- -- --

Raw TAF
KTPA 281731Z 2818/2918 24008KT P6SM SCT050
  FM282100 27008KT P6SM FEW060
  FM290100 31004KT P6SM FEW060
  FM290300 VRB03KT P6SM SKC
  FM291400 15005KT P6SM SCT250
  FM291700 21007KT P6SM FEW050 SCT250


Raw METAR
KTPA 281853Z 25007KT 10SM FEW050 28/14 A3003 RMK AO2 SLP167 CU BLDG SW-W T02830139
KTPA 281753Z 24007KT 10SM FEW050 27/15 A3005 RMK AO2 SLP176 T02720150 10272 20194 58013
KTPA 281653Z 23008KT 10SM FEW040 26/16 A3007 RMK AO2 SLP183 T02610156

METAR Board
Radar Display
Forecast Discussion

FOR SITUATIONAL AWARENESS. NOT TO BE USED FOR FLIGHT PLANNING PURPOSES.

Page loaded:  19:41 UTC  |   12:41 PM Pacific  |   01:41 PM Mountain  |   02:41 PM Central  |   03:41 PM Eastern

 

ADVISORIES

FORECASTS

FORECASTS

OBSERVATIONS

USER TOOLS

ABOUT US